sensor_id;sensor_type;location;lat;lon;timestamp;P1;durP1;ratioP1;P2;durP2;ratioP2
46198;SDS011;31928;52.104;10.030;2023-08-31T18:08:58;1.48;;;1.38;;
46198;SDS011;31928;52.104;10.030;2023-08-31T18:11:25;1.63;;;1.30;;
46198;SDS011;31928;52.104;10.030;2023-08-31T18:13:51;2.40;;;1.42;;
46198;SDS011;31928;52.104;10.030;2023-08-31T18:16:18;1.70;;;1.60;;
46198;SDS011;31928;52.104;10.030;2023-08-31T18:18:45;1.73;;;1.63;;
46198;SDS011;31928;52.104;10.030;2023-08-31T18:21:11;1.70;;;1.60;;
46198;SDS011;31928;52.104;10.030;2023-08-31T18:23:38;1.85;;;1.75;;
46198;SDS011;31928;52.104;10.030;2023-08-31T18:26:06;1.88;;;1.77;;
46198;SDS011;31928;52.104;10.030;2023-08-31T18:30:59;1.83;;;1.73;;
46198;SDS011;31928;52.104;10.030;2023-08-31T18:33:28;1.73;;;1.63;;
46198;SDS011;31928;52.104;10.030;2023-08-31T18:35:56;2.20;;;2.10;;
46198;SDS011;31928;52.104;10.030;2023-08-31T18:38:24;1.80;;;1.70;;
46198;SDS011;31928;52.104;10.030;2023-08-31T18:40:52;1.70;;;1.60;;
46198;SDS011;31928;52.104;10.030;2023-08-31T18:43:21;1.80;;;1.70;;
46198;SDS011;31928;52.104;10.030;2023-08-31T18:45:49;2.00;;;1.80;;
46198;SDS011;31928;52.104;10.030;2023-08-31T18:48:17;2.00;;;1.83;;
46198;SDS011;31928;52.104;10.030;2023-08-31T18:50:43;1.60;;;1.50;;
46198;SDS011;31928;52.104;10.030;2023-08-31T18:53:10;2.22;;;2.00;;
46198;SDS011;31928;52.104;10.030;2023-08-31T18:55:37;2.03;;;1.88;;
46198;SDS011;31928;52.104;10.030;2023-08-31T18:58:04;2.13;;;2.03;;
46198;SDS011;31928;52.104;10.030;2023-08-31T19:00:31;1.80;;;1.70;;
46198;SDS011;31928;52.104;10.030;2023-08-31T19:02:58;2.25;;;2.10;;
46198;SDS011;31928;52.104;10.030;2023-08-31T19:05:26;1.88;;;1.77;;
46198;SDS011;31928;52.104;10.030;2023-08-31T19:07:53;2.63;;;1.70;;
46198;SDS011;31928;52.104;10.030;2023-08-31T19:10:19;2.45;;;2.28;;
46198;SDS011;31928;52.104;10.030;2023-08-31T19:12:48;2.17;;;2.08;;
46198;SDS011;31928;52.104;10.030;2023-08-31T19:15:15;2.20;;;2.00;;
46198;SDS011;31928;52.104;10.030;2023-08-31T19:17:44;1.80;;;1.70;;
46198;SDS011;31928;52.104;10.030;2023-08-31T19:20:13;2.50;;;1.80;;
46198;SDS011;31928;52.104;10.030;2023-08-31T19:22:44;1.85;;;1.75;;
46198;SDS011;31928;52.104;10.030;2023-08-31T19:25:12;1.90;;;1.80;;
46198;SDS011;31928;52.104;10.030;2023-08-31T19:27:39;1.60;;;1.50;;
46198;SDS011;31928;52.104;10.030;2023-08-31T19:30:06;3.13;;;1.95;;
46198;SDS011;31928;52.104;10.030;2023-08-31T19:32:34;2.55;;;2.35;;
46198;SDS011;31928;52.104;10.030;2023-08-31T19:35:02;1.90;;;1.80;;
46198;SDS011;31928;52.104;10.030;2023-08-31T19:37:49;2.78;;;2.28;;
46198;SDS011;31928;52.104;10.030;2023-08-31T19:40:20;2.83;;;2.50;;
46198;SDS011;31928;52.104;10.030;2023-08-31T19:42:47;2.10;;;2.00;;
46198;SDS011;31928;52.104;10.030;2023-08-31T19:45:16;1.95;;;1.85;;
46198;SDS011;31928;52.104;10.030;2023-08-31T19:47:44;1.70;;;1.60;;
46198;SDS011;31928;52.104;10.030;2023-08-31T19:50:14;2.20;;;2.10;;
46198;SDS011;31928;52.104;10.030;2023-08-31T19:52:42;1.70;;;1.60;;
46198;SDS011;31928;52.104;10.030;2023-08-31T19:55:11;1.90;;;1.80;;
46198;SDS011;31928;52.104;10.030;2023-08-31T19:57:38;1.77;;;1.67;;
46198;SDS011;31928;52.104;10.030;2023-08-31T20:00:06;2.30;;;2.10;;
46198;SDS011;31928;52.104;10.030;2023-08-31T20:02:35;2.35;;;1.70;;
46198;SDS011;31928;52.104;10.030;2023-08-31T20:05:02;1.98;;;1.88;;
46198;SDS011;31928;52.104;10.030;2023-08-31T20:07:32;2.15;;;1.95;;
46198;SDS011;31928;52.104;10.030;2023-08-31T20:09:58;2.13;;;1.92;;
46198;SDS011;31928;52.104;10.030;2023-08-31T20:14:52;1.70;;;1.60;;
46198;SDS011;31928;52.104;10.030;2023-08-31T20:17:18;1.98;;;1.88;;
46198;SDS011;31928;52.104;10.030;2023-08-31T20:22:11;2.55;;;2.13;;
46198;SDS011;31928;52.104;10.030;2023-08-31T20:24:39;2.13;;;2.03;;
46198;SDS011;31928;52.104;10.030;2023-08-31T20:29:32;3.00;;;1.77;;
46198;SDS011;31928;52.104;10.030;2023-08-31T20:31:59;1.98;;;1.88;;
46198;SDS011;31928;52.104;10.030;2023-08-31T20:34:26;2.55;;;2.45;;
46198;SDS011;31928;52.104;10.030;2023-08-31T20:39:22;2.95;;;2.40;;
46198;SDS011;31928;52.104;10.030;2023-08-31T20:41:49;2.22;;;2.10;;
46198;SDS011;31928;52.104;10.030;2023-08-31T20:44:16;2.40;;;2.20;;
46198;SDS011;31928;52.104;10.030;2023-08-31T20:49:11;3.17;;;2.05;;
46198;SDS011;31928;52.104;10.030;2023-08-31T20:51:38;2.30;;;2.20;;
46198;SDS011;31928;52.104;10.030;2023-08-31T20:54:06;2.30;;;2.10;;
46198;SDS011;31928;52.104;10.030;2023-08-31T20:56:33;2.33;;;2.20;;
46198;SDS011;31928;52.104;10.030;2023-08-31T20:59:01;2.25;;;2.15;;
46198;SDS011;31928;52.104;10.030;2023-08-31T21:01:29;2.00;;;1.90;;
46198;SDS011;31928;52.104;10.030;2023-08-31T21:08:51;2.50;;;2.40;;
46198;SDS011;31928;52.104;10.030;2023-08-31T21:11:19;2.42;;;2.28;;
46198;SDS011;31928;52.104;10.030;2023-08-31T21:13:46;3.20;;;3.00;;
46198;SDS011;31928;52.104;10.030;2023-08-31T21:16:13;2.85;;;2.65;;
46198;SDS011;31928;52.104;10.030;2023-08-31T21:18:40;2.80;;;2.60;;
46198;SDS011;31928;52.104;10.030;2023-08-31T21:21:07;2.60;;;2.40;;
46198;SDS011;31928;52.104;10.030;2023-08-31T21:23:35;3.03;;;2.83;;
46198;SDS011;31928;52.104;10.030;2023-08-31T21:26:03;2.30;;;2.20;;
46198;SDS011;31928;52.104;10.030;2023-08-31T21:28:31;3.05;;;2.80;;
46198;SDS011;31928;52.104;10.030;2023-08-31T21:30:58;3.88;;;2.80;;
46198;SDS011;31928;52.104;10.030;2023-08-31T21:33:28;2.30;;;2.20;;
46198;SDS011;31928;52.104;10.030;2023-08-31T21:35:55;3.40;;;3.20;;
46198;SDS011;31928;52.104;10.030;2023-08-31T21:40:48;2.83;;;2.50;;
46198;SDS011;31928;52.104;10.030;2023-08-31T21:43:15;2.40;;;2.30;;
46198;SDS011;31928;52.104;10.030;2023-08-31T21:45:42;2.38;;;2.10;;
46198;SDS011;31928;52.104;10.030;2023-08-31T21:50:35;3.20;;;2.88;;
46198;SDS011;31928;52.104;10.030;2023-08-31T21:53:05;3.08;;;2.88;;
46198;SDS011;31928;52.104;10.030;2023-08-31T21:55:35;3.80;;;3.58;;
46198;SDS011;31928;52.104;10.030;2023-08-31T22:00:29;2.50;;;2.30;;
46198;SDS011;31928;52.104;10.030;2023-08-31T22:02:56;2.83;;;2.63;;
46198;SDS011;31928;52.104;10.030;2023-08-31T22:05:23;3.08;;;2.90;;
46198;SDS011;31928;52.104;10.030;2023-08-31T22:07:54;2.80;;;2.60;;
46198;SDS011;31928;52.104;10.030;2023-08-31T22:10:22;3.15;;;2.95;;
46198;SDS011;31928;52.104;10.030;2023-08-31T22:12:51;2.60;;;2.40;;
46198;SDS011;31928;52.104;10.030;2023-08-31T22:15:23;3.30;;;3.10;;
46198;SDS011;31928;52.104;10.030;2023-08-31T22:17:52;2.97;;;2.67;;
46198;SDS011;31928;52.104;10.030;2023-08-31T22:20:21;3.17;;;2.97;;
46198;SDS011;31928;52.104;10.030;2023-08-31T22:22:51;3.25;;;3.03;;
46198;SDS011;31928;52.104;10.030;2023-08-31T22:25:21;3.38;;;3.17;;
46198;SDS011;31928;52.104;10.030;2023-08-31T22:27:50;3.95;;;3.65;;
46198;SDS011;31928;52.104;10.030;2023-08-31T22:30:18;3.03;;;2.83;;
46198;SDS011;31928;52.104;10.030;2023-08-31T22:32:45;3.00;;;2.80;;
46198;SDS011;31928;52.104;10.030;2023-08-31T22:35:12;3.20;;;3.00;;
46198;SDS011;31928;52.104;10.030;2023-08-31T22:37:41;3.10;;;2.80;;
46198;SDS011;31928;52.104;10.030;2023-08-31T22:42:36;2.70;;;2.60;;
46198;SDS011;31928;52.104;10.030;2023-08-31T22:45:03;5.45;;;3.42;;
46198;SDS011;31928;52.104;10.030;2023-08-31T22:47:32;5.13;;;4.30;;
46198;SDS011;31928;52.104;10.030;2023-08-31T22:49:59;3.50;;;3.10;;
46198;SDS011;31928;52.104;10.030;2023-08-31T22:52:27;3.20;;;2.90;;
46198;SDS011;31928;52.104;10.030;2023-08-31T22:57:23;3.63;;;2.90;;
46198;SDS011;31928;52.104;10.030;2023-08-31T22:59:51;3.17;;;2.97;;
46198;SDS011;31928;52.104;10.030;2023-08-31T23:02:18;3.53;;;3.10;;
46198;SDS011;31928;52.104;10.030;2023-08-31T23:04:45;2.97;;;2.78;;
46198;SDS011;31928;52.104;10.030;2023-08-31T23:07:12;3.10;;;2.90;;
46198;SDS011;31928;52.104;10.030;2023-08-31T23:12:05;2.70;;;2.50;;
46198;SDS011;31928;52.104;10.030;2023-08-31T23:14:32;3.45;;;3.15;;
46198;SDS011;31928;52.104;10.030;2023-08-31T23:19:27;2.80;;;2.50;;
46198;SDS011;31928;52.104;10.030;2023-08-31T23:21:54;3.15;;;2.47;;
46198;SDS011;31928;52.104;10.030;2023-08-31T23:26:47;2.67;;;2.47;;
46198;SDS011;31928;52.104;10.030;2023-08-31T23:29:14;2.90;;;2.70;;
46198;SDS011;31928;52.104;10.030;2023-08-31T23:34:07;2.80;;;2.70;;
46198;SDS011;31928;52.104;10.030;2023-08-31T23:39:01;2.50;;;2.30;;
46198;SDS011;31928;52.104;10.030;2023-08-31T23:41:34;2.50;;;2.40;;
46198;SDS011;31928;52.104;10.030;2023-08-31T23:44:02;2.42;;;2.33;;
46198;SDS011;31928;52.104;10.030;2023-08-31T23:46:29;2.88;;;2.70;;
46198;SDS011;31928;52.104;10.030;2023-08-31T23:48:55;2.60;;;2.40;;
46198;SDS011;31928;52.104;10.030;2023-08-31T23:51:24;2.92;;;2.72;;
46198;SDS011;31928;52.104;10.030;2023-08-31T23:53:53;2.70;;;2.50;;
46198;SDS011;31928;52.104;10.030;2023-08-31T23:56:21;2.90;;;2.70;;
46198;SDS011;31928;52.104;10.030;2023-08-31T23:58:48;3.13;;;2.92;;
